createdAt,value
2022-12-18T00:02:09.762Z,13.88
2022-12-18T00:04:36.588Z,11.35
2022-12-18T00:07:03.957Z,12.45
2022-12-18T00:09:31.298Z,12.00
2022-12-18T00:14:43.023Z,12.38
2022-12-18T00:17:10.131Z,11.48
2022-12-18T00:19:37.016Z,11.02
2022-12-18T00:22:03.857Z,13.00
2022-12-18T00:24:30.767Z,12.23
2022-12-18T00:26:57.623Z,11.35
2022-12-18T00:29:24.396Z,9.43
2022-12-18T00:31:51.303Z,9.63
2022-12-18T00:34:18.126Z,11.43
2022-12-18T00:36:45.043Z,10.43
2022-12-18T00:39:12.787Z,10.77
2022-12-18T00:41:58.348Z,10.75
2022-12-18T00:44:25.182Z,10.73
2022-12-18T00:46:52.010Z,11.63
2022-12-18T00:49:19.918Z,12.20
2022-12-18T00:51:47.556Z,12.05
2022-12-18T00:54:14.352Z,10.10
2022-12-18T00:56:48.333Z,12.15
2022-12-18T00:59:16.612Z,11.35
2022-12-18T01:01:43.810Z,10.43
2022-12-18T01:04:10.824Z,10.52
2022-12-18T01:06:37.712Z,9.48
2022-12-18T01:09:04.592Z,10.80
2022-12-18T01:11:31.817Z,10.13
2022-12-18T01:13:58.701Z,10.75
2022-12-18T01:16:25.560Z,11.02
2022-12-18T01:18:53.511Z,11.05
2022-12-18T01:21:21.037Z,8.43
2022-12-18T01:23:48.036Z,9.52
2022-12-18T01:26:16.207Z,8.55
2022-12-18T01:28:44.800Z,9.98
2022-12-18T01:31:16.135Z,10.70
2022-12-18T01:33:43.081Z,7.97
2022-12-18T01:36:15.387Z,8.00
2022-12-18T01:38:42.155Z,7.18
2022-12-18T01:41:09.326Z,9.02
2022-12-18T01:43:48.974Z,8.60
2022-12-18T01:46:16.008Z,6.95
2022-12-18T01:48:43.523Z,8.23
2022-12-18T01:51:11.571Z,8.93
2022-12-18T01:53:40.275Z,9.00
2022-12-18T01:56:07.486Z,9.32
2022-12-18T01:58:48.752Z,10.65
2022-12-18T02:01:15.662Z,8.98
2022-12-18T02:03:43.909Z,9.02
2022-12-18T02:06:20.036Z,9.05
2022-12-18T02:08:52.263Z,8.88
2022-12-18T02:11:19.097Z,8.40
2022-12-18T02:13:56.632Z,9.95
2022-12-18T02:16:26.786Z,8.82
2022-12-18T02:18:57.043Z,7.90
2022-12-18T02:21:35.181Z,9.27
2022-12-18T02:24:01.959Z,9.38
2022-12-18T02:26:33.754Z,9.13
2022-12-18T02:29:06.807Z,8.65
2022-12-18T02:31:37.852Z,8.77
2022-12-18T02:34:06.765Z,8.65
2022-12-18T02:36:34.674Z,9.55
2022-12-18T02:39:02.494Z,9.73
2022-12-18T02:41:29.679Z,8.63
2022-12-18T02:43:58.611Z,9.05
2022-12-18T02:46:31.671Z,7.38
2022-12-18T02:49:02.666Z,7.65
2022-12-18T02:51:37.638Z,8.30
2022-12-18T02:54:09.851Z,7.93
2022-12-18T02:56:39.460Z,9.77
2022-12-18T02:59:13.472Z,7.45
2022-12-18T03:01:51.848Z,8.52
2022-12-18T03:04:27.377Z,8.63
2022-12-18T03:06:56.520Z,7.55
2022-12-18T03:09:27.774Z,7.43
2022-12-18T03:12:15.790Z,8.63
2022-12-18T03:14:43.086Z,7.03
2022-12-18T03:17:14.619Z,7.53
2022-12-18T03:19:43.200Z,6.57
2022-12-18T03:22:10.805Z,7.50
2022-12-18T03:24:40.077Z,7.75
2022-12-18T03:27:10.374Z,8.00
2022-12-18T03:29:39.280Z,7.53
2022-12-18T03:32:09.191Z,8.57
2022-12-18T03:34:38.521Z,8.68
2022-12-18T03:37:06.286Z,8.70
2022-12-18T03:39:33.600Z,9.80
2022-12-18T03:42:20.644Z,10.50
2022-12-18T03:44:50.539Z,8.77
2022-12-18T03:47:34.629Z,8.93
2022-12-18T03:50:12.795Z,9.63
2022-12-18T03:52:45.518Z,8.95
2022-12-18T03:55:12.725Z,8.82
2022-12-18T03:57:39.977Z,9.40
2022-12-18T04:00:11.722Z,9.80
2022-12-18T04:02:40.204Z,8.38
2022-12-18T04:05:08.283Z,8.38
2022-12-18T04:07:35.748Z,8.23
2022-12-18T04:10:04.353Z,8.95
2022-12-18T04:12:31.288Z,8.30
2022-12-18T04:14:58.144Z,8.30
2022-12-18T04:17:25.180Z,9.57
2022-12-18T04:19:51.946Z,8.10
2022-12-18T04:22:18.900Z,8.60
2022-12-18T04:24:45.709Z,8.48
2022-12-18T04:27:12.519Z,8.20
2022-12-18T04:29:39.370Z,8.65
2022-12-18T04:32:06.246Z,8.38
2022-12-18T04:34:33.137Z,8.77
2022-12-18T04:37:00.021Z,8.65
2022-12-18T04:39:26.865Z,8.85
2022-12-18T04:41:53.638Z,8.27
2022-12-18T04:44:20.396Z,8.70
2022-12-18T04:46:47.255Z,7.78
2022-12-18T04:49:14.192Z,7.97
2022-12-18T04:51:41.100Z,7.55
2022-12-18T04:54:07.898Z,6.60
2022-12-18T04:56:34.657Z,5.72
2022-12-18T04:59:01.469Z,5.75
2022-12-18T05:01:34.080Z,4.60
2022-12-18T05:04:01.898Z,5.75
2022-12-18T05:06:28.752Z,4.65
2022-12-18T05:08:55.681Z,5.38
2022-12-18T05:11:22.884Z,5.28
2022-12-18T05:13:49.673Z,4.50
2022-12-18T05:16:16.532Z,5.68
2022-12-18T05:18:43.661Z,4.63
2022-12-18T05:21:10.552Z,5.45
2022-12-18T05:23:37.758Z,5.55
2022-12-18T05:26:05.963Z,5.82
2022-12-18T05:28:33.213Z,4.90
2022-12-18T05:31:01.004Z,5.40
2022-12-18T05:33:29.804Z,4.47
2022-12-18T05:35:57.690Z,4.90
2022-12-18T05:38:25.164Z,5.50
2022-12-18T05:40:52.246Z,5.88
2022-12-18T05:43:21.450Z,5.70
2022-12-18T05:45:48.957Z,5.00
2022-12-18T05:48:16.311Z,5.38
2022-12-18T05:50:46.494Z,5.90
2022-12-18T05:53:14.177Z,5.20
2022-12-18T05:55:41.713Z,5.38
2022-12-18T05:58:10.019Z,4.25
2022-12-18T06:00:40.875Z,6.03
2022-12-18T06:03:08.703Z,5.38
2022-12-18T06:05:36.694Z,5.65
2022-12-18T06:08:03.561Z,5.13
2022-12-18T06:10:30.340Z,4.65
2022-12-18T06:12:57.116Z,5.10
2022-12-18T06:15:23.881Z,5.30
2022-12-18T06:17:50.706Z,6.00
2022-12-18T06:20:17.556Z,4.90
2022-12-18T06:22:45.072Z,4.90
2022-12-18T06:25:11.894Z,5.00
2022-12-18T06:27:38.794Z,5.80
2022-12-18T06:30:06.078Z,6.13
2022-12-18T06:32:32.926Z,5.82
2022-12-18T06:34:59.693Z,5.50
2022-12-18T06:37:27.189Z,5.47
2022-12-18T06:39:54.713Z,5.22
2022-12-18T06:42:21.463Z,6.10
2022-12-18T06:44:48.265Z,6.13
2022-12-18T06:47:15.103Z,6.35
2022-12-18T06:49:41.844Z,6.78
2022-12-18T06:52:08.635Z,6.97
2022-12-18T06:54:35.561Z,6.28
2022-12-18T06:57:02.392Z,6.28
2022-12-18T06:59:29.145Z,6.80
2022-12-18T07:01:56.641Z,6.15
2022-12-18T07:04:23.552Z,5.57
2022-12-18T07:06:50.397Z,5.72
2022-12-18T07:09:17.201Z,6.18
2022-12-18T07:11:43.968Z,6.05
2022-12-18T07:14:10.855Z,6.32
2022-12-18T07:16:37.668Z,5.65
2022-12-18T07:19:04.593Z,5.47
2022-12-18T07:21:31.425Z,6.38
2022-12-18T07:23:58.295Z,5.70
2022-12-18T07:26:25.171Z,5.65
2022-12-18T07:28:55.483Z,5.57
2022-12-18T07:31:22.873Z,4.90
2022-12-18T07:33:50.667Z,5.93
2022-12-18T07:36:17.500Z,5.47
2022-12-18T07:38:44.293Z,5.60
2022-12-18T07:41:12.249Z,5.53
2022-12-18T07:43:39.704Z,6.00
2022-12-18T07:46:07.450Z,5.45
2022-12-18T07:48:34.735Z,5.15
2022-12-18T07:51:02.494Z,5.03
2022-12-18T07:53:29.651Z,5.20
2022-12-18T07:56:25.627Z,4.68
2022-12-18T07:58:45.445Z,4.47
2022-12-18T08:01:12.784Z,4.38
2022-12-18T08:03:40.565Z,4.70
2022-12-18T08:06:10.460Z,4.68
2022-12-18T08:08:37.924Z,4.45
2022-12-18T08:11:04.841Z,5.78
2022-12-18T08:13:31.647Z,4.82
2022-12-18T08:16:05.858Z,4.20
2022-12-18T08:18:36.841Z,4.70
2022-12-18T08:21:21.342Z,5.32
2022-12-18T08:23:49.135Z,4.50
2022-12-18T08:26:16.833Z,5.30
2022-12-18T08:28:43.857Z,5.22
2022-12-18T08:31:11.171Z,5.22
2022-12-18T08:33:39.413Z,4.63
2022-12-18T08:36:06.792Z,6.32
2022-12-18T08:38:34.341Z,4.45
2022-12-18T08:41:08.433Z,4.90
2022-12-18T08:43:54.070Z,5.20
2022-12-18T08:46:21.704Z,4.72
2022-12-18T08:48:49.488Z,5.50
2022-12-18T08:51:17.329Z,4.95
2022-12-18T08:53:45.366Z,5.85
2022-12-18T08:56:12.262Z,5.00
2022-12-18T08:58:39.065Z,5.70
2022-12-18T09:01:07.064Z,4.72
2022-12-18T09:03:34.073Z,5.85
2022-12-18T09:06:00.890Z,5.68
2022-12-18T09:08:27.998Z,5.53
2022-12-18T09:10:54.767Z,5.70
2022-12-18T09:13:22.129Z,5.28
2022-12-18T09:15:50.548Z,6.15
2022-12-18T09:18:18.693Z,5.15
2022-12-18T09:20:46.145Z,6.10
2022-12-18T09:23:13.065Z,5.80
2022-12-18T09:25:40.027Z,5.72
2022-12-18T09:28:10.922Z,6.60
2022-12-18T09:30:41.823Z,5.78
2022-12-18T09:33:08.817Z,5.85
2022-12-18T09:35:40.055Z,5.40
2022-12-18T09:38:07.253Z,5.72
2022-12-18T09:40:36.940Z,6.47
2022-12-18T09:43:05.713Z,6.07
2022-12-18T09:45:46.573Z,6.07
2022-12-18T09:48:19.895Z,6.20
2022-12-18T09:50:47.524Z,5.60
2022-12-18T09:53:20.034Z,6.07
2022-12-18T09:55:47.644Z,5.88
2022-12-18T09:58:17.916Z,6.53
2022-12-18T10:00:44.747Z,6.10
2022-12-18T10:03:13.894Z,6.05
2022-12-18T10:05:51.003Z,7.00
2022-12-18T10:08:17.734Z,5.38
2022-12-18T10:10:49.680Z,5.57
2022-12-18T10:13:40.662Z,5.68
2022-12-18T10:16:30.935Z,6.50
2022-12-18T10:19:00.887Z,7.30
2022-12-18T10:21:40.267Z,6.88
2022-12-18T10:24:29.969Z,6.80
2022-12-18T10:27:00.229Z,7.22
2022-12-18T10:29:27.174Z,6.15
2022-12-18T10:31:53.934Z,7.35
2022-12-18T10:34:20.730Z,7.70
2022-12-18T10:36:48.649Z,7.03
2022-12-18T10:39:19.893Z,6.95
2022-12-18T10:41:47.303Z,6.35
2022-12-18T10:44:14.083Z,6.68
2022-12-18T10:46:41.715Z,6.88
2022-12-18T10:49:19.495Z,7.22
2022-12-18T10:51:46.312Z,7.45
2022-12-18T10:54:18.104Z,7.60
2022-12-18T10:59:13.129Z,6.43
2022-12-18T11:02:06.487Z,6.93
2022-12-18T11:04:33.417Z,6.78
2022-12-18T11:07:07.885Z,6.63
2022-12-18T11:09:35.924Z,6.97
2022-12-18T11:12:04.654Z,8.05
2022-12-18T11:14:46.771Z,7.43
2022-12-18T11:17:27.459Z,8.15
2022-12-18T11:19:55.405Z,7.65
2022-12-18T11:22:24.564Z,8.00
2022-12-18T11:25:30.712Z,7.57
2022-12-18T11:27:50.431Z,8.18
2022-12-18T11:30:30.988Z,9.10
2022-12-18T11:33:00.871Z,8.02
2022-12-18T11:35:37.402Z,9.07
2022-12-18T11:38:07.719Z,8.27
2022-12-18T11:40:40.707Z,9.27
2022-12-18T11:43:11.302Z,8.27
2022-12-18T11:45:54.427Z,8.32
2022-12-18T11:48:27.932Z,8.05
2022-12-18T11:50:59.461Z,7.90
2022-12-18T11:53:27.129Z,8.10
2022-12-18T11:56:18.475Z,8.55
2022-12-18T11:58:48.420Z,9.63
2022-12-18T12:01:43.979Z,8.65
2022-12-18T12:04:11.552Z,9.43
2022-12-18T12:06:46.429Z,9.35
2022-12-18T12:09:30.918Z,10.50
2022-12-18T12:14:33.626Z,12.73
2022-12-18T12:17:19.106Z,16.10
2022-12-18T12:19:45.983Z,14.43
2022-12-18T12:22:24.949Z,14.35
2022-12-18T12:25:21.254Z,12.02
2022-12-18T12:27:56.994Z,10.48
2022-12-18T12:30:31.721Z,8.57
2022-12-18T12:32:58.578Z,8.35
2022-12-18T12:35:31.667Z,8.50
2022-12-18T12:38:04.307Z,11.32
2022-12-18T12:43:23.111Z,9.90
2022-12-18T12:46:16.740Z,9.15
2022-12-18T12:48:56.036Z,8.65
2022-12-18T12:51:24.950Z,9.52
2022-12-18T12:53:52.974Z,8.98
2022-12-18T12:56:21.050Z,8.60
2022-12-18T12:58:53.268Z,8.60
2022-12-18T13:01:36.021Z,8.02
2022-12-18T13:04:02.924Z,8.85
2022-12-18T13:06:44.420Z,8.88
2022-12-18T13:09:11.606Z,6.80
2022-12-18T13:12:02.312Z,6.82
2022-12-18T13:14:39.845Z,6.00
2022-12-18T13:17:28.933Z,5.68
2022-12-18T13:20:10.009Z,6.60
2022-12-18T13:22:39.025Z,6.40
2022-12-18T13:25:45.009Z,5.65
2022-12-18T13:28:13.731Z,5.13
2022-12-18T13:30:41.163Z,6.32
2022-12-18T13:33:34.252Z,5.90
2022-12-18T13:36:13.269Z,4.82
2022-12-18T13:38:40.849Z,5.63
2022-12-18T13:41:19.760Z,5.38
2022-12-18T13:43:47.667Z,5.53
2022-12-18T13:46:25.741Z,5.57
2022-12-18T13:49:05.611Z,4.47
2022-12-18T13:51:34.891Z,4.95
2022-12-18T13:54:03.857Z,4.95
2022-12-18T13:56:34.486Z,5.20
2022-12-18T13:59:13.371Z,5.47
2022-12-18T14:01:46.367Z,4.65
2022-12-18T14:04:19.056Z,5.00
2022-12-18T14:06:46.731Z,4.82
2022-12-18T14:09:26.248Z,5.05
2022-12-18T14:12:14.648Z,4.85
2022-12-18T14:14:48.226Z,4.32
2022-12-18T14:17:16.483Z,4.70
2022-12-18T14:19:45.941Z,4.53
2022-12-18T14:22:17.597Z,3.90
2022-12-18T14:24:44.338Z,4.63
2022-12-18T14:27:29.183Z,4.20
2022-12-18T14:29:55.953Z,4.65
2022-12-18T14:32:23.523Z,4.38
2022-12-18T14:34:51.881Z,5.20
2022-12-18T14:37:22.552Z,4.00
2022-12-18T14:40:02.182Z,4.60
2022-12-18T14:42:31.593Z,4.28
2022-12-18T14:45:17.144Z,4.10
2022-12-18T14:47:44.429Z,3.67
2022-12-18T14:50:15.121Z,3.90
2022-12-18T14:52:42.043Z,3.92
2022-12-18T14:55:15.882Z,4.00
2022-12-18T14:57:45.488Z,3.58
2022-12-18T15:00:22.756Z,3.55
2022-12-18T15:02:51.679Z,3.97
2022-12-18T15:05:18.558Z,3.83
2022-12-18T15:07:46.530Z,3.60
2022-12-18T15:10:15.681Z,3.30
2022-12-18T15:13:11.909Z,4.13
2022-12-18T15:15:38.927Z,3.78
2022-12-18T15:18:08.680Z,3.75
2022-12-18T15:20:45.801Z,3.75
2022-12-18T15:23:15.684Z,3.60
2022-12-18T15:25:42.577Z,3.60
2022-12-18T15:28:26.879Z,3.60
2022-12-18T15:33:25.831Z,3.13
2022-12-18T15:35:59.820Z,3.72
2022-12-18T15:38:27.106Z,3.70
2022-12-18T15:40:56.607Z,3.22
2022-12-18T15:43:36.350Z,3.60
2022-12-18T15:46:03.245Z,2.95
2022-12-18T15:48:30.536Z,3.03
2022-12-18T15:50:58.321Z,3.42
2022-12-18T15:53:30.208Z,2.83
2022-12-18T15:56:23.290Z,2.97
2022-12-18T15:58:51.139Z,2.47
2022-12-18T16:01:18.104Z,2.75
2022-12-18T16:03:46.564Z,2.78
2022-12-18T16:06:13.388Z,2.63
2022-12-18T16:08:40.171Z,2.97
2022-12-18T16:11:21.073Z,2.53
2022-12-18T16:13:47.897Z,2.80
2022-12-18T16:16:14.746Z,2.60
2022-12-18T16:18:41.810Z,2.00
2022-12-18T16:21:09.044Z,2.60
2022-12-18T16:23:36.055Z,2.35
2022-12-18T16:26:03.640Z,2.70
2022-12-18T16:28:30.401Z,2.28
2022-12-18T16:30:57.425Z,2.42
2022-12-18T16:33:24.665Z,2.28
2022-12-18T16:35:54.554Z,2.25
2022-12-18T16:38:21.389Z,2.33
2022-12-18T16:41:06.962Z,2.67
2022-12-18T16:43:33.725Z,2.58
2022-12-18T16:46:00.611Z,2.60
2022-12-18T16:48:27.479Z,3.00
2022-12-18T16:51:02.630Z,3.05
2022-12-18T16:53:30.103Z,2.92
2022-12-18T16:55:57.276Z,2.88
2022-12-18T16:58:24.122Z,3.00
2022-12-18T17:00:50.916Z,3.13
2022-12-18T17:03:17.856Z,3.38
2022-12-18T17:05:48.742Z,2.75
2022-12-18T17:08:18.422Z,2.78
2022-12-18T17:10:45.213Z,3.10
2022-12-18T17:13:11.990Z,2.80
2022-12-18T17:15:38.872Z,2.78
2022-12-18T17:18:05.703Z,2.78
2022-12-18T17:20:32.483Z,2.45
2022-12-18T17:22:59.286Z,2.47
2022-12-18T17:25:27.771Z,2.85
2022-12-18T17:27:54.546Z,2.90
2022-12-18T17:30:21.327Z,2.85
2022-12-18T17:32:48.154Z,2.90
2022-12-18T17:35:14.991Z,2.97
2022-12-18T17:37:42.151Z,3.20
2022-12-18T17:40:09.240Z,3.28
2022-12-18T17:42:36.023Z,3.15
2022-12-18T17:45:02.866Z,3.05
2022-12-18T17:47:29.609Z,3.25
2022-12-18T17:49:56.402Z,3.58
2022-12-18T17:52:24.264Z,2.90
2022-12-18T17:54:52.809Z,3.55
2022-12-18T17:57:19.633Z,2.90
2022-12-18T17:59:46.407Z,3.30
2022-12-18T18:02:13.264Z,3.90
2022-12-18T18:04:40.884Z,3.03
2022-12-18T18:07:07.748Z,3.55
2022-12-18T18:09:34.603Z,3.63
2022-12-18T18:12:19.986Z,3.35
2022-12-18T18:14:47.111Z,3.75
2022-12-18T18:17:13.900Z,3.28
2022-12-18T18:19:42.125Z,3.38
2022-12-18T18:22:10.851Z,3.60
2022-12-18T18:24:37.770Z,3.63
2022-12-18T18:27:04.567Z,3.30
2022-12-18T18:29:31.515Z,3.10
2022-12-18T18:31:59.100Z,3.22
2022-12-18T18:34:30.352Z,3.67
2022-12-18T18:36:58.613Z,3.72
2022-12-18T18:39:25.772Z,2.97
2022-12-18T18:41:52.602Z,3.30
2022-12-18T18:44:25.687Z,3.28
2022-12-18T18:46:54.199Z,3.92
2022-12-18T18:49:21.030Z,3.63
2022-12-18T18:51:50.078Z,3.40
2022-12-18T18:54:16.881Z,2.90
2022-12-18T18:59:31.737Z,3.20
2022-12-18T19:02:00.045Z,2.78
2022-12-18T19:04:31.900Z,2.80
2022-12-18T19:06:58.698Z,3.17
2022-12-18T19:09:26.278Z,2.92
